Terminal Aerodrome Forecast
Issued by NWS

Home | Current Version | Previous Version | Graphics & Text | Print | Product List | Glossary On
Versions: 1 2 3 4 5 6 7 8 9 10 11 12 13 14 15 16 17 18 19 20 21 22 23
000
FTUS43 KGRB 201744
TAFRHI
TAF
KRHI 201744Z 2018/2118 11004KT 4SM -RA BR SCT012 OVC025
      TEMPO 2018/2022 2SM BR BKN012
     FM202200 12004KT 2SM BR OVC006
     FM210200 11004KT 1SM BR OVC003
     FM211000 11005KT 1SM -FZDZ BR OVC003
     FM211600 11006KT 2SM -DZ BR OVC004=

USA.gov is the U.S. government's official web portal to all federal, state and local government web resources and services.